PIMOHWEATHER Station Historical Data
Daily Summary for January 03, 2020 Units:  Metric    English   Both
Daily Weekly Monthly Yearly
  High: Low: Average:
Temperature: 33.0 °C 25.0 °C 27.9 °C
Dew Point: 23.0 °C 21.0 °C 21.2 °C
Humidity: 79% 53% 68%
Wind Speed: 32km/h 0km/h 11.2km/h
Wind Gust: 40km/h - -
Wind- - ESE
Pressure: 1016.3 hPa 1012.2 hPa -
Precipitation: 0.00 mm    
 
 
Tabular Data for January 03, 2020
Time Temperature Dew Point Pressure Wind Wind Speed Wind Gust Humidity Rainfall Rate (Hourly) solar
00:04 26.0 °C 21.0 °C 1016.1 hPa NNE 6 km/h 8 km/h 74% 0.00 mm 0.00 W/m2
00:09 26.0 °C 21.0 °C 1016.1 hPa NNE 6 km/h 12 km/h 74% 0.00 mm 0.00 W/m2
00:14 26.0 °C 22.0 °C 1016.1 hPa NE 4 km/h 4 km/h 75% 0.00 mm 0.00 W/m2
00:19 26.0 °C 22.0 °C 1016.1 hPa ESE 1 km/h 4 km/h 75% 0.00 mm 0.00 W/m2
00:24 26.0 °C 22.0 °C 1015.7 hPa NNE 5 km/h 8 km/h 75% 0.00 mm 0.00 W/m2
00:29 26.0 °C 22.0 °C 1015.7 hPa NNE 9 km/h 12 km/h 75% 0.00 mm 0.00 W/m2
00:34 26.0 °C 22.0 °C 1015.7 hPa NNE 8 km/h 12 km/h 75% 0.00 mm 0.00 W/m2
00:39 26.0 °C 22.0 °C 1015.7 hPa NNE 8 km/h 12 km/h 75% 0.00 mm 0.00 W/m2
00:44 26.0 °C 22.0 °C 1015.7 hPa NNE 8 km/h 8 km/h 75% 0.00 mm 0.00 W/m2
00:49 26.0 °C 21.0 °C 1015.4 hPa Calm     75% 0.00 mm 0.00 W/m2
00:54 26.0 °C 21.0 °C 1015.7 hPa Calm     75% 0.00 mm 0.00 W/m2
00:59 26.0 °C 22.0 °C 1015.7 hPa Calm     76% 0.00 mm 0.00 W/m2
01:04 26.0 °C 22.0 °C 1015.7 hPa NNE 1 km/h 4 km/h 76% 0.00 mm 0.00 W/m2
01:09 26.0 °C 22.0 °C 1015.4 hPa NE 3 km/h 4 km/h 76% 0.00 mm 0.00 W/m2
01:14 26.0 °C 21.0 °C 1015.4 hPa NE 3 km/h 4 km/h 76% 0.00 mm 0.00 W/m2
01:19 26.0 °C 21.0 °C 1015.4 hPa Calm     76% 0.00 mm 0.00 W/m2
01:24 26.0 °C 21.0 °C 1015.4 hPa North 3 km/h 4 km/h 76% 0.00 mm 0.00 W/m2
01:29 26.0 °C 21.0 °C 1015.4 hPa NNE 5 km/h 8 km/h 76% 0.00 mm 0.00 W/m2
01:34 26.0 °C 21.0 °C 1015.0 hPa NNE 3 km/h 4 km/h 75% 0.00 mm 0.00 W/m2
01:39 26.0 °C 21.0 °C 1015.0 hPa NNE 10 km/h 12 km/h 75% 0.00 mm 0.00 W/m2
01:44 26.0 °C 21.0 °C 1015.0 hPa North 6 km/h 8 km/h 75% 0.00 mm 0.00 W/m2
01:49 26.0 °C 21.0 °C 1015.0 hPa North 11 km/h 16 km/h 75% 0.00 mm 0.00 W/m2
01:54 26.0 °C 21.0 °C 1015.0 hPa NNW 10 km/h 12 km/h 74% 0.00 mm 0.00 W/m2
01:59 26.0 °C 21.0 °C 1014.7 hPa NNW 12 km/h 16 km/h 74% 0.00 mm 0.00 W/m2
02:04 26.0 °C 21.0 °C 1014.7 hPa NNW 12 km/h 16 km/h 74% 0.00 mm 0.00 W/m2
02:09 26.0 °C 21.0 °C 1014.7 hPa North 9 km/h 12 km/h 75% 0.00 mm 0.00 W/m2
02:14 26.0 °C 21.0 °C 1014.7 hPa North 15 km/h 16 km/h 74% 0.00 mm 0.00 W/m2
02:19 26.0 °C 21.0 °C 1014.4 hPa North 14 km/h 16 km/h 74% 0.00 mm 0.00 W/m2
02:24 26.0 °C 21.0 °C 1014.4 hPa North 18 km/h 20 km/h 74% 0.00 mm 0.00 W/m2
02:29 26.0 °C 21.0 °C 1014.4 hPa North 17 km/h 24 km/h 74% 0.00 mm 0.00 W/m2
02:34 26.0 °C 21.0 °C 1014.4 hPa North 15 km/h 16 km/h 74% 0.00 mm 0.00 W/m2
02:39 26.0 °C 21.0 °C 1014.4 hPa North 15 km/h 16 km/h 74% 0.00 mm 0.00 W/m2
02:44 26.0 °C 21.0 °C 1014.3 hPa North 12 km/h 16 km/h 74% 0.00 mm 0.00 W/m2
02:49 26.0 °C 21.0 °C 1014.3 hPa North 12 km/h 16 km/h 74% 0.00 mm 0.00 W/m2
02:54 26.0 °C 21.0 °C 1014.0 hPa North 17 km/h 28 km/h 74% 0.00 mm 0.00 W/m2
02:59 26.0 °C 21.0 °C 1014.0 hPa North 15 km/h 16 km/h 73% 0.00 mm 0.00 W/m2
03:04 26.0 °C 21.0 °C 1014.0 hPa North 14 km/h 16 km/h 73% 0.00 mm 0.00 W/m2
03:09 26.0 °C 21.0 °C 1014.0 hPa North 18 km/h 20 km/h 74% 0.00 mm 0.00 W/m2
03:14 26.0 °C 21.0 °C 1014.0 hPa North 15 km/h 20 km/h 74% 0.00 mm 0.00 W/m2
03:19 26.0 °C 21.0 °C 1014.0 hPa North 23 km/h 24 km/h 74% 0.00 mm 0.00 W/m2
03:24 26.0 °C 21.0 °C 1014.0 hPa North 19 km/h 24 km/h 73% 0.00 mm 0.00 W/m2
03:29 26.0 °C 21.0 °C 1014.3 hPa North 12 km/h 16 km/h 73% 0.00 mm 0.00 W/m2
03:34 26.0 °C 21.0 °C 1014.0 hPa North 15 km/h 24 km/h 73% 0.00 mm 0.00 W/m2
03:39 26.0 °C 21.0 °C 1014.0 hPa North 15 km/h 20 km/h 74% 0.00 mm 0.00 W/m2
03:44 26.0 °C 21.0 °C 1014.0 hPa North 16 km/h 16 km/h 74% 0.00 mm 0.00 W/m2
03:49 26.0 °C 21.0 °C 1014.4 hPa North 16 km/h 20 km/h 74% 0.00 mm 0.00 W/m2
03:54 26.0 °C 21.0 °C 1014.4 hPa North 17 km/h 20 km/h 74% 0.00 mm 0.00 W/m2
03:59 26.0 °C 21.0 °C 1014.4 hPa North 15 km/h 20 km/h 74% 0.00 mm 0.00 W/m2
04:04 26.0 °C 21.0 °C 1014.4 hPa North 12 km/h 16 km/h 74% 0.00 mm 0.00 W/m2
04:09 26.0 °C 21.0 °C 1014.4 hPa North 12 km/h 16 km/h 74% 0.00 mm 0.00 W/m2
04:14 26.0 °C 21.0 °C 1014.4 hPa North 10 km/h 12 km/h 74% 0.00 mm 0.00 W/m2
04:19 26.0 °C 21.0 °C 1014.4 hPa North 13 km/h 16 km/h 74% 0.00 mm 0.00 W/m2
04:24 26.0 °C 21.0 °C 1014.4 hPa NNW 11 km/h 16 km/h 75% 0.00 mm 0.00 W/m2
04:29 26.0 °C 21.0 °C 1014.4 hPa NNW 9 km/h 12 km/h 75% 0.00 mm 0.00 W/m2
04:34 26.0 °C 21.0 °C 1014.4 hPa North 15 km/h 20 km/h 75% 0.00 mm 0.00 W/m2
04:39 26.0 °C 21.0 °C 1014.4 hPa North 10 km/h 12 km/h 75% 0.00 mm 0.00 W/m2
04:44 26.0 °C 21.0 °C 1014.4 hPa North 10 km/h 12 km/h 75% 0.00 mm 0.00 W/m2
04:49 26.0 °C 21.0 °C 1014.4 hPa North 10 km/h 12 km/h 76% 0.00 mm 0.00 W/m2
04:54 26.0 °C 21.0 °C 1014.4 hPa North 14 km/h 16 km/h 76% 0.00 mm 0.00 W/m2
04:59 26.0 °C 21.0 °C 1014.4 hPa North 17 km/h 20 km/h 76% 0.00 mm 0.00 W/m2
05:04 26.0 °C 21.0 °C 1014.4 hPa North 15 km/h 20 km/h 75% 0.00 mm 0.00 W/m2
05:09 26.0 °C 21.0 °C 1014.4 hPa North 14 km/h 16 km/h 75% 0.00 mm 0.00 W/m2
05:14 26.0 °C 21.0 °C 1014.4 hPa North 14 km/h 20 km/h 75% 0.00 mm 0.00 W/m2
05:19 26.0 °C 21.0 °C 1014.4 hPa North 14 km/h 16 km/h 75% 0.00 mm 0.00 W/m2
05:24 26.0 °C 21.0 °C 1014.4 hPa North 12 km/h 20 km/h 75% 0.00 mm 0.00 W/m2
05:29 26.0 °C 21.0 °C 1014.4 hPa North 17 km/h 20 km/h 75% 0.00 mm 0.00 W/m2
05:34 26.0 °C 21.0 °C 1014.6 hPa North 15 km/h 20 km/h 75% 0.00 mm 0.00 W/m2
05:39 26.0 °C 21.0 °C 1014.7 hPa North 13 km/h 16 km/h 75% 0.00 mm 0.00 W/m2
05:44 26.0 °C 21.0 °C 1014.7 hPa North 14 km/h 16 km/h 76% 0.00 mm 0.00 W/m2
05:49 26.0 °C 21.0 °C 1014.7 hPa North 13 km/h 16 km/h 76% 0.00 mm 0.00 W/m2
05:54 26.0 °C 21.0 °C 1015.0 hPa North 15 km/h 16 km/h 76% 0.00 mm 0.00 W/m2
05:59 26.0 °C 21.0 °C 1015.0 hPa North 15 km/h 16 km/h 76% 0.00 mm 0.00 W/m2
06:04 26.0 °C 21.0 °C 1015.0 hPa North 12 km/h 12 km/h 76% 0.00 mm 0.00 W/m2
06:09 26.0 °C 21.0 °C 1014.9 hPa North 12 km/h 16 km/h 76% 0.00 mm 0.00 W/m2
06:14 26.0 °C 21.0 °C 1015.0 hPa North 10 km/h 12 km/h 76% 0.00 mm 0.00 W/m2
06:19 25.0 °C 21.0 °C 1015.0 hPa North 11 km/h 12 km/h 76% 0.00 mm 0.00 W/m2
06:24 25.0 °C 21.0 °C 1015.0 hPa NNW 8 km/h 12 km/h 76% 0.00 mm 1.72 W/m2
06:29 25.0 °C 21.0 °C 1015.4 hPa NNW 9 km/h 12 km/h 76% 0.00 mm 5.62 W/m2
06:34 25.0 °C 21.0 °C 1015.4 hPa North 9 km/h 12 km/h 76% 0.00 mm 9.86 W/m2
06:39 25.0 °C 21.0 °C 1015.4 hPa NNE 5 km/h 8 km/h 77% 0.00 mm 18.65 W/m2
06:44 25.0 °C 21.0 °C 1015.4 hPa NNW 3 km/h 4 km/h 77% 0.00 mm 23.93 W/m2
06:49 25.0 °C 21.0 °C 1015.4 hPa NNE 3 km/h 4 km/h 76% 0.00 mm 28.14 W/m2
06:54 26.0 °C 21.0 °C 1015.7 hPa North 5 km/h 8 km/h 76% 0.00 mm 35.21 W/m2
06:59 26.0 °C 21.0 °C 1015.7 hPa North 6 km/h 8 km/h 76% 0.00 mm 43.64 W/m2
07:04 26.0 °C 21.0 °C 1015.7 hPa North 5 km/h 8 km/h 76% 0.00 mm 53.11 W/m2
07:09 26.0 °C 21.0 °C 1015.7 hPa North 9 km/h 12 km/h 75% 0.00 mm 63.82 W/m2
07:14 26.0 °C 21.0 °C 1016.1 hPa NE 5 km/h 8 km/h 75% 0.00 mm 69.31 W/m2
07:19 26.0 °C 21.0 °C 1016.1 hPa North 5 km/h 8 km/h 74% 0.00 mm 76.61 W/m2
07:24 26.0 °C 21.0 °C 1016.1 hPa North 8 km/h 8 km/h 73% 0.00 mm 81.45 W/m2
07:29 26.0 °C 21.0 °C 1016.1 hPa NNE 6 km/h 8 km/h 73% 0.00 mm 82.33 W/m2
07:34 27.0 °C 21.0 °C 1016.1 hPa North 7 km/h 8 km/h 72% 0.00 mm 85.36 W/m2
07:39 27.0 °C 21.0 °C 1016.1 hPa North 6 km/h 8 km/h 72% 0.00 mm 89.72 W/m2
07:44 27.0 °C 21.0 °C 1016.1 hPa North 6 km/h 8 km/h 71% 0.00 mm 90.45 W/m2
07:49 28.0 °C 21.0 °C 1016.1 hPa NNE 6 km/h 8 km/h 70% 0.00 mm 92.73 W/m2
07:54 28.0 °C 21.0 °C 1016.0 hPa NNE 12 km/h 12 km/h 68% 0.00 mm 94.68 W/m2
07:59 28.0 °C 21.0 °C 1016.0 hPa NNE 5 km/h 8 km/h 68% 0.00 mm 95.05 W/m2
08:04 29.0 °C 21.0 °C 1016.0 hPa NNE 5 km/h 8 km/h 67% 0.00 mm 98.21 W/m2
08:09 28.0 °C 21.0 °C 1016.0 hPa NNE 9 km/h 12 km/h 67% 0.00 mm 97.74 W/m2
08:14 28.0 °C 21.0 °C 1016.0 hPa NNE 5 km/h 12 km/h 67% 0.00 mm 108.51 W/m2
08:19 28.0 °C 21.0 °C 1016.0 hPa North 9 km/h 12 km/h 66% 0.00 mm 116.51 W/m2
08:24 29.0 °C 21.0 °C 1016.0 hPa North 7 km/h 8 km/h 65% 0.00 mm 134.22 W/m2
08:29 29.0 °C 21.0 °C 1016.0 hPa North 13 km/h 20 km/h 65% 0.00 mm 143.72 W/m2
08:34 28.0 °C 21.0 °C 1016.0 hPa North 13 km/h 16 km/h 65% 0.00 mm 147.12 W/m2
08:39 29.0 °C 21.0 °C 1016.0 hPa NNE 10 km/h 12 km/h 65% 0.00 mm 129.10 W/m2
08:44 29.0 °C 21.0 °C 1016.0 hPa North 12 km/h 16 km/h 65% 0.00 mm 148.81 W/m2
08:49 29.0 °C 21.0 °C 1016.0 hPa NNE 10 km/h 12 km/h 64% 0.00 mm 147.20 W/m2
08:54 29.0 °C 21.0 °C 1016.0 hPa NNE 9 km/h 12 km/h 64% 0.00 mm 175.28 W/m2
08:59 29.0 °C 21.0 °C 1016.0 hPa NNW 13 km/h 16 km/h 64% 0.00 mm 147.43 W/m2
09:04 29.0 °C 21.0 °C 1016.0 hPa NNW 12 km/h 16 km/h 65% 0.00 mm 170.53 W/m2
09:09 29.0 °C 21.0 °C 1016.0 hPa North 12 km/h 16 km/h 64% 0.00 mm 169.33 W/m2
09:14 29.0 °C 21.0 °C 1016.0 hPa North 15 km/h 20 km/h 64% 0.00 mm 175.91 W/m2
09:19 29.0 °C 21.0 °C 1016.0 hPa NNW 13 km/h 16 km/h 64% 0.00 mm 182.96 W/m2
09:24 30.0 °C 22.0 °C 1016.0 hPa North 13 km/h 16 km/h 62% 0.00 mm 169.66 W/m2
09:29 29.0 °C 21.0 °C 1016.0 hPa NNE 11 km/h 16 km/h 63% 0.00 mm 224.16 W/m2
09:34 29.0 °C 21.0 °C 1016.0 hPa North 13 km/h 16 km/h 63% 0.00 mm 243.98 W/m2
09:39 30.0 °C 21.0 °C 1016.3 hPa NNE 21 km/h 24 km/h 61% 0.00 mm 288.00 W/m2
09:44 31.0 °C 22.0 °C 1016.0 hPa NNE 27 km/h 32 km/h 60% 0.00 mm 304.96 W/m2
09:49 31.0 °C 21.0 °C 1016.0 hPa NE 25 km/h 32 km/h 58% 0.00 mm 303.61 W/m2
09:54 30.0 °C 21.0 °C 1016.0 hPa NE 21 km/h 32 km/h 58% 0.00 mm 230.26 W/m2
09:59 30.0 °C 21.0 °C 1016.0 hPa ENE 18 km/h 28 km/h 59% 0.00 mm 204.64 W/m2
10:04 30.0 °C 21.0 °C 1016.0 hPa ENE 14 km/h 28 km/h 58% 0.00 mm 177.74 W/m2
10:09 30.0 °C 21.0 °C 1016.0 hPa ENE 10 km/h 16 km/h 58% 0.00 mm 204.00 W/m2
10:14 30.0 °C 21.0 °C 1016.0 hPa NE 20 km/h 24 km/h 58% 0.00 mm 231.48 W/m2
10:19 30.0 °C 21.0 °C 1016.0 hPa North 15 km/h 24 km/h 57% 0.00 mm 219.05 W/m2
10:24 30.0 °C 21.0 °C 1016.0 hPa NE 32 km/h 40 km/h 57% 0.00 mm 246.89 W/m2
10:29 30.0 °C 21.0 °C 1016.0 hPa NNE 23 km/h 28 km/h 58% 0.00 mm 247.55 W/m2
10:34 30.0 °C 21.0 °C 1016.0 hPa North 13 km/h 20 km/h 58% 0.00 mm 385.21 W/m2
10:39 31.0 °C 21.0 °C 1016.0 hPa NNE 29 km/h 36 km/h 57% 0.00 mm 403.19 W/m2
10:44 30.0 °C 21.0 °C 1016.0 hPa NNE 23 km/h 28 km/h 57% 0.00 mm 399.81 W/m2
10:49 31.0 °C 21.0 °C 1015.9 hPa NE 20 km/h 24 km/h 57% 0.00 mm 382.27 W/m2
10:54 31.0 °C 21.0 °C 1016.0 hPa NE 18 km/h 20 km/h 56% 0.00 mm 422.08 W/m2
10:59 31.0 °C 21.0 °C 1015.7 hPa NE 15 km/h 20 km/h 56% 0.00 mm 447.38 W/m2
11:04 32.0 °C 21.0 °C 1015.7 hPa ENE 10 km/h 16 km/h 55% 0.00 mm 481.95 W/m2
11:09 32.0 °C 21.0 °C 1015.5 hPa East 13 km/h 20 km/h 54% 0.00 mm 469.06 W/m2
11:14 32.0 °C 21.0 °C 1015.3 hPa North 18 km/h 24 km/h 54% 0.00 mm 455.75 W/m2
11:19 32.0 °C 21.0 °C 1015.3 hPa NNE 23 km/h 24 km/h 55% 0.00 mm 463.92 W/m2
11:24 31.0 °C 22.0 °C 1015.3 hPa North 30 km/h 36 km/h 57% 0.00 mm 425.90 W/m2
11:29 31.0 °C 22.0 °C 1015.3 hPa NNE 22 km/h 36 km/h 57% 0.00 mm 437.05 W/m2
11:34 31.0 °C 21.0 °C 1014.9 hPa NNE 18 km/h 24 km/h 56% 0.00 mm 439.11 W/m2
11:39 31.0 °C 21.0 °C 1014.7 hPa North 20 km/h 24 km/h 56% 0.00 mm 431.94 W/m2
11:44 32.0 °C 22.0 °C 1014.6 hPa NNE 21 km/h 24 km/h 56% 0.00 mm 427.29 W/m2
11:49 33.0 °C 21.0 °C 1014.5 hPa WNW 7 km/h 12 km/h 53% 0.00 mm 441.12 W/m2
11:54 33.0 °C 21.0 °C 1014.3 hPa North 17 km/h 20 km/h 55% 0.00 mm 436.34 W/m2
11:59 32.0 °C 21.0 °C 1014.3 hPa North 22 km/h 24 km/h 56% 0.00 mm 436.44 W/m2
12:04 31.0 °C 22.0 °C 1014.3 hPa North 27 km/h 28 km/h 56% 0.00 mm 436.30 W/m2
12:09 31.0 °C 22.0 °C 1013.9 hPa North 24 km/h 28 km/h 57% 0.00 mm 436.64 W/m2
12:14 32.0 °C 22.0 °C 1013.9 hPa North 21 km/h 24 km/h 56% 0.00 mm 430.06 W/m2
12:19 31.0 °C 22.0 °C 1013.9 hPa NNE 25 km/h 28 km/h 57% 0.00 mm 366.64 W/m2
12:24 31.0 °C 22.0 °C 1013.6 hPa North 18 km/h 24 km/h 58% 0.00 mm 368.91 W/m2
12:29 31.0 °C 22.0 °C 1013.6 hPa NNE 15 km/h 16 km/h 58% 0.00 mm 415.47 W/m2
12:34 32.0 °C 22.0 °C 1013.6 hPa NE 11 km/h 16 km/h 56% 0.00 mm 462.01 W/m2
12:39 33.0 °C 23.0 °C 1013.6 hPa SE 13 km/h 16 km/h 55% 0.00 mm 496.66 W/m2
12:44 33.0 °C 23.0 °C 1013.5 hPa SE 14 km/h 20 km/h 56% 0.00 mm 489.00 W/m2
12:49 33.0 °C 22.0 °C 1013.2 hPa SSE 9 km/h 12 km/h 55% 0.00 mm 511.63 W/m2
12:54 32.0 °C 22.0 °C 1013.2 hPa SE 8 km/h 8 km/h 55% 0.00 mm 210.94 W/m2
12:59 32.0 °C 22.0 °C 1013.2 hPa SE 15 km/h 16 km/h 56% 0.00 mm 456.51 W/m2
13:04 33.0 °C 22.0 °C 1012.9 hPa ENE 14 km/h 20 km/h 55% 0.00 mm 474.88 W/m2
13:09 33.0 °C 22.0 °C 1012.9 hPa North 13 km/h 16 km/h 56% 0.00 mm 445.49 W/m2
13:14 32.0 °C 22.0 °C 1012.9 hPa North 8 km/h 12 km/h 56% 0.00 mm 200.02 W/m2
13:19 32.0 °C 22.0 °C 1012.9 hPa NW 8 km/h 12 km/h 57% 0.00 mm 278.38 W/m2
13:24 32.0 °C 22.0 °C 1012.9 hPa ESE 7 km/h 8 km/h 57% 0.00 mm 130.65 W/m2
13:29 32.0 °C 22.0 °C 1012.9 hPa SE 5 km/h 8 km/h 56% 0.00 mm 130.45 W/m2
13:34 32.0 °C 22.0 °C 1012.7 hPa NE 3 km/h 8 km/h 56% 0.00 mm 137.11 W/m2
13:39 32.0 °C 22.0 °C 1012.8 hPa NNW 6 km/h 8 km/h 57% 0.00 mm 211.98 W/m2
13:44 32.0 °C 22.0 °C 1012.6 hPa NW 8 km/h 8 km/h 57% 0.00 mm 419.09 W/m2
13:49 33.0 °C 22.0 °C 1012.6 hPa SW 5 km/h 8 km/h 56% 0.00 mm 424.58 W/m2
13:54 33.0 °C 22.0 °C 1012.6 hPa East 6 km/h 8 km/h 56% 0.00 mm 387.73 W/m2
13:59 32.0 °C 22.0 °C 1012.5 hPa SSE 10 km/h 12 km/h 56% 0.00 mm 231.40 W/m2
14:04 32.0 °C 23.0 °C 1012.5 hPa North 6 km/h 8 km/h 58% 0.00 mm 416.45 W/m2
14:09 32.0 °C 23.0 °C 1012.5 hPa SSE 10 km/h 12 km/h 58% 0.00 mm 414.77 W/m2
14:14 32.0 °C 23.0 °C 1012.5 hPa SSE 8 km/h 12 km/h 60% 0.00 mm 197.32 W/m2
14:19 32.0 °C 23.0 °C 1012.8 hPa ESE 4 km/h 4 km/h 60% 0.00 mm 105.62 W/m2
14:24 32.0 °C 23.0 °C 1012.6 hPa SSE 8 km/h 12 km/h 60% 0.00 mm 98.57 W/m2
14:29 31.0 °C 23.0 °C 1012.6 hPa SSE 5 km/h 8 km/h 60% 0.00 mm 97.86 W/m2
14:34 31.0 °C 23.0 °C 1012.6 hPa WNW 8 km/h 12 km/h 60% 0.00 mm 103.32 W/m2
14:39 31.0 °C 22.0 °C 1012.6 hPa North 6 km/h 8 km/h 60% 0.00 mm 102.02 W/m2
14:44 31.0 °C 22.0 °C 1012.6 hPa SSW 11 km/h 12 km/h 60% 0.00 mm 102.02 W/m2
14:49 31.0 °C 22.0 °C 1012.6 hPa SE 8 km/h 12 km/h 60% 0.00 mm 113.77 W/m2
14:54 31.0 °C 22.0 °C 1012.6 hPa ENE 10 km/h 12 km/h 59% 0.00 mm 352.94 W/m2
14:59 31.0 °C 22.0 °C 1012.6 hPa NNE 14 km/h 16 km/h 58% 0.00 mm 331.75 W/m2
15:04 31.0 °C 22.0 °C 1012.6 hPa NNE 12 km/h 16 km/h 58% 0.00 mm 332.46 W/m2
15:09 31.0 °C 21.0 °C 1012.6 hPa NNE 13 km/h 16 km/h 57% 0.00 mm 305.91 W/m2
15:14 31.0 °C 21.0 °C 1012.6 hPa NNE 15 km/h 20 km/h 57% 0.00 mm 140.90 W/m2
15:19 31.0 °C 21.0 °C 1012.6 hPa NNE 17 km/h 20 km/h 57% 0.00 mm 145.55 W/m2
15:24 31.0 °C 21.0 °C 1012.6 hPa NNE 19 km/h 28 km/h 58% 0.00 mm 155.88 W/m2
15:29 31.0 °C 21.0 °C 1012.6 hPa NNE 21 km/h 24 km/h 58% 0.00 mm 156.61 W/m2
15:34 31.0 °C 22.0 °C 1012.6 hPa North 20 km/h 24 km/h 59% 0.00 mm 133.13 W/m2
15:39 31.0 °C 22.0 °C 1012.6 hPa NNE 15 km/h 20 km/h 59% 0.00 mm 128.84 W/m2
15:44 30.0 °C 21.0 °C 1012.6 hPa NNE 17 km/h 20 km/h 59% 0.00 mm 124.62 W/m2
15:49 30.0 °C 21.0 °C 1012.6 hPa NNE 18 km/h 20 km/h 60% 0.00 mm 113.52 W/m2
15:54 30.0 °C 22.0 °C 1012.6 hPa North 22 km/h 24 km/h 60% 0.00 mm 97.47 W/m2
15:59 30.0 °C 21.0 °C 1012.6 hPa NNE 17 km/h 20 km/h 60% 0.00 mm 189.91 W/m2
16:04 30.0 °C 21.0 °C 1012.6 hPa NNE 16 km/h 20 km/h 60% 0.00 mm 152.35 W/m2
16:09 30.0 °C 21.0 °C 1012.8 hPa NNE 18 km/h 24 km/h 60% 0.00 mm 203.24 W/m2
16:14 30.0 °C 21.0 °C 1012.9 hPa NNE 17 km/h 24 km/h 60% 0.00 mm 90.52 W/m2
16:19 30.0 °C 21.0 °C 1012.9 hPa NNE 20 km/h 24 km/h 60% 0.00 mm 101.53 W/m2
16:24 30.0 °C 21.0 °C 1012.9 hPa NNE 14 km/h 16 km/h 60% 0.00 mm 79.81 W/m2
16:29 30.0 °C 21.0 °C 1012.9 hPa NE 13 km/h 20 km/h 60% 0.00 mm 70.95 W/m2
16:34 30.0 °C 21.0 °C 1013.1 hPa NNE 17 km/h 24 km/h 60% 0.00 mm 70.30 W/m2
16:39 30.0 °C 21.0 °C 1013.3 hPa NNE 19 km/h 24 km/h 61% 0.00 mm 57.07 W/m2
16:44 30.0 °C 21.0 °C 1013.3 hPa NNE 20 km/h 24 km/h 61% 0.00 mm 51.73 W/m2
16:49 29.0 °C 21.0 °C 1012.2 hPa NNE 20 km/h 20 km/h 62% 0.00 mm 48.52 W/m2
16:54 29.0 °C 21.0 °C 1012.2 hPa NNE 16 km/h 20 km/h 62% 0.00 mm 45.63 W/m2
16:59 29.0 °C 21.0 °C 1013.5 hPa NNE 22 km/h 24 km/h 62% 0.00 mm 43.15 W/m2
17:04 29.0 °C 21.0 °C 1013.3 hPa NNE 19 km/h 24 km/h 62% 0.00 mm 42.65 W/m2
17:09 29.0 °C 21.0 °C 1013.6 hPa NNE 17 km/h 20 km/h 62% 0.00 mm 36.16 W/m2
17:14 29.0 °C 21.0 °C 1013.6 hPa North 17 km/h 20 km/h 63% 0.00 mm 30.99 W/m2
17:19 29.0 °C 21.0 °C 1013.6 hPa NNE 15 km/h 20 km/h 63% 0.00 mm 26.96 W/m2
17:24 29.0 °C 21.0 °C 1013.6 hPa NE 13 km/h 16 km/h 63% 0.00 mm 21.83 W/m2
17:29 29.0 °C 21.0 °C 1013.6 hPa NNE 15 km/h 20 km/h 63% 0.00 mm 17.12 W/m2
17:34 29.0 °C 21.0 °C 1013.6 hPa NNE 10 km/h 12 km/h 63% 0.00 mm 11.20 W/m2
17:39 28.0 °C 21.0 °C 1013.6 hPa NNE 14 km/h 16 km/h 64% 0.00 mm 5.94 W/m2
17:44 28.0 °C 21.0 °C 1013.6 hPa NNE 17 km/h 20 km/h 64% 0.00 mm 2.56 W/m2
17:49 28.0 °C 21.0 °C 1013.9 hPa NNE 18 km/h 20 km/h 64% 0.00 mm 0.04 W/m2
17:54 28.0 °C 21.0 °C 1013.6 hPa NNE 17 km/h 24 km/h 65% 0.00 mm 0.00 W/m2
17:59 28.0 °C 21.0 °C 1012.5 hPa NNE 21 km/h 24 km/h 65% 0.00 mm 0.00 W/m2
18:04 28.0 °C 21.0 °C 1014.0 hPa NNE 15 km/h 20 km/h 65% 0.00 mm 0.00 W/m2
18:09 28.0 °C 21.0 °C 1014.0 hPa North 10 km/h 12 km/h 65% 0.00 mm 0.00 W/m2
18:14 28.0 °C 21.0 °C 1014.0 hPa NE 13 km/h 16 km/h 65% 0.00 mm 0.00 W/m2
18:19 28.0 °C 21.0 °C 1014.0 hPa NNE 14 km/h 16 km/h 65% 0.00 mm 0.00 W/m2
18:24 28.0 °C 21.0 °C 1014.0 hPa NNE 12 km/h 16 km/h 66% 0.00 mm 0.00 W/m2
18:29 28.0 °C 21.0 °C 1014.3 hPa NNE 11 km/h 16 km/h 66% 0.00 mm 0.00 W/m2
18:34 28.0 °C 21.0 °C 1014.0 hPa North 6 km/h 12 km/h 67% 0.00 mm 0.00 W/m2
18:39 28.0 °C 21.0 °C 1014.3 hPa North 14 km/h 16 km/h 68% 0.00 mm 0.00 W/m2
18:44 27.0 °C 21.0 °C 1014.3 hPa North 6 km/h 12 km/h 69% 0.00 mm 0.00 W/m2
18:49 27.0 °C 21.0 °C 1014.3 hPa North 10 km/h 12 km/h 69% 0.00 mm 0.00 W/m2
18:54 27.0 °C 21.0 °C 1014.3 hPa NNE 11 km/h 12 km/h 69% 0.00 mm 0.00 W/m2
18:59 27.0 °C 21.0 °C 1014.3 hPa NNE 6 km/h 12 km/h 69% 0.00 mm 0.00 W/m2
19:04 27.0 °C 21.0 °C 1014.3 hPa NNE 8 km/h 8 km/h 69% 0.00 mm 0.00 W/m2
19:09 27.0 °C 21.0 °C 1014.3 hPa NNE 11 km/h 12 km/h 70% 0.00 mm 0.00 W/m2
19:14 27.0 °C 21.0 °C 1014.3 hPa NNE 8 km/h 12 km/h 69% 0.00 mm 0.00 W/m2
19:19 27.0 °C 21.0 °C 1014.3 hPa NNE 7 km/h 8 km/h 69% 0.00 mm 0.00 W/m2
19:24 27.0 °C 21.0 °C 1014.6 hPa NNE 7 km/h 12 km/h 69% 0.00 mm 0.00 W/m2
19:29 27.0 °C 21.0 °C 1014.7 hPa NNE 10 km/h 12 km/h 70% 0.00 mm 0.00 W/m2
19:34 27.0 °C 21.0 °C 1014.7 hPa North 8 km/h 12 km/h 70% 0.00 mm 0.00 W/m2
19:39 27.0 °C 21.0 °C 1014.6 hPa NNE 8 km/h 8 km/h 70% 0.00 mm 0.00 W/m2
19:44 27.0 °C 21.0 °C 1014.7 hPa North 9 km/h 12 km/h 70% 0.00 mm 0.00 W/m2
19:49 27.0 °C 21.0 °C 1014.7 hPa North 8 km/h 8 km/h 71% 0.00 mm 0.00 W/m2
19:54 27.0 °C 21.0 °C 1014.7 hPa NNE 7 km/h 8 km/h 71% 0.00 mm 0.00 W/m2
19:59 27.0 °C 21.0 °C 1014.7 hPa NNE 9 km/h 12 km/h 70% 0.00 mm 0.00 W/m2
20:04 27.0 °C 21.0 °C 1014.7 hPa North 10 km/h 12 km/h 70% 0.00 mm 0.00 W/m2
20:09 27.0 °C 21.0 °C 1014.7 hPa North 9 km/h 12 km/h 71% 0.00 mm 0.00 W/m2
20:14 27.0 °C 21.0 °C 1014.7 hPa North 10 km/h 12 km/h 72% 0.00 mm 0.00 W/m2
20:19 26.0 °C 21.0 °C 1014.9 hPa North 9 km/h 12 km/h 73% 0.00 mm 0.00 W/m2
20:24 26.0 °C 21.0 °C 1014.7 hPa North 7 km/h 8 km/h 73% 0.00 mm 0.00 W/m2
20:29 26.0 °C 21.0 °C 1014.7 hPa North 8 km/h 12 km/h 74% 0.00 mm 0.00 W/m2
20:34 26.0 °C 21.0 °C 1014.9 hPa North 6 km/h 8 km/h 74% 0.00 mm 0.00 W/m2
20:39 26.0 °C 21.0 °C 1014.7 hPa North 6 km/h 8 km/h 74% 0.00 mm 0.00 W/m2
20:44 26.0 °C 21.0 °C 1014.7 hPa North 9 km/h 12 km/h 75% 0.00 mm 0.00 W/m2
20:49 26.0 °C 21.0 °C 1014.7 hPa North 5 km/h 8 km/h 75% 0.00 mm 0.00 W/m2
20:54 26.0 °C 21.0 °C 1014.7 hPa North 8 km/h 8 km/h 75% 0.00 mm 0.00 W/m2
20:59 26.0 °C 21.0 °C 1014.7 hPa North 8 km/h 12 km/h 75% 0.00 mm 0.00 W/m2
21:04 26.0 °C 21.0 °C 1015.0 hPa North 8 km/h 8 km/h 75% 0.00 mm 0.00 W/m2
21:09 26.0 °C 21.0 °C 1014.8 hPa North 7 km/h 8 km/h 75% 0.00 mm 0.00 W/m2
21:14 26.0 °C 21.0 °C 1014.7 hPa North 8 km/h 12 km/h 75% 0.00 mm 0.00 W/m2
21:19 26.0 °C 21.0 °C 1014.9 hPa NNW 7 km/h 8 km/h 76% 0.00 mm 0.00 W/m2
21:24 26.0 °C 21.0 °C 1014.8 hPa NW 4 km/h 8 km/h 76% 0.00 mm 0.00 W/m2
21:29 26.0 °C 21.0 °C 1014.7 hPa North 5 km/h 12 km/h 76% 0.00 mm 0.00 W/m2
21:34 26.0 °C 21.0 °C 1014.7 hPa North 8 km/h 12 km/h 76% 0.00 mm 0.00 W/m2
21:39 26.0 °C 21.0 °C 1014.7 hPa North 7 km/h 8 km/h 76% 0.00 mm 0.00 W/m2
21:44 26.0 °C 21.0 °C 1014.9 hPa North 6 km/h 8 km/h 76% 0.00 mm 0.00 W/m2
21:49 25.0 °C 21.0 °C 1014.7 hPa North 6 km/h 8 km/h 76% 0.00 mm 0.00 W/m2
21:54 25.0 °C 21.0 °C 1014.7 hPa North 6 km/h 8 km/h 76% 0.00 mm 0.00 W/m2
21:59 25.0 °C 21.0 °C 1014.7 hPa NNW 3 km/h 4 km/h 76% 0.00 mm 0.00 W/m2
22:04 25.0 °C 21.0 °C 1014.7 hPa NNE 4 km/h 8 km/h 77% 0.00 mm 0.00 W/m2
22:09 25.0 °C 21.0 °C 1014.7 hPa North 5 km/h 8 km/h 76% 0.00 mm 0.00 W/m2
22:14 25.0 °C 21.0 °C 1014.7 hPa NNE 5 km/h 8 km/h 76% 0.00 mm 0.00 W/m2
22:19 26.0 °C 21.0 °C 1014.7 hPa NNE 5 km/h 8 km/h 76% 0.00 mm 0.00 W/m2
22:24 25.0 °C 21.0 °C 1014.6 hPa Calm     76% 0.00 mm 0.00 W/m2
22:29 25.0 °C 21.0 °C 1014.4 hPa ENE 1 km/h 4 km/h 76% 0.00 mm 0.00 W/m2
22:34 25.0 °C 21.0 °C 1014.4 hPa NNE 3 km/h 4 km/h 76% 0.00 mm 0.00 W/m2
22:39 26.0 °C 21.0 °C 1014.6 hPa Calm     77% 0.00 mm 0.00 W/m2
22:44 25.0 °C 21.0 °C 1014.4 hPa Calm     77% 0.00 mm 0.00 W/m2
22:49 25.0 °C 21.0 °C 1014.6 hPa Calm     77% 0.00 mm 0.00 W/m2
22:54 25.0 °C 21.0 °C 1014.4 hPa NW 3 km/h 4 km/h 77% 0.00 mm 0.00 W/m2
22:59 25.0 °C 21.0 °C 1014.4 hPa NW 1 km/h 4 km/h 77% 0.00 mm 0.00 W/m2
23:04 25.0 °C 21.0 °C 1014.4 hPa NW 1 km/h 4 km/h 77% 0.00 mm 0.00 W/m2
23:09 25.0 °C 21.0 °C 1014.4 hPa North 3 km/h 4 km/h 77% 0.00 mm 0.00 W/m2
23:14 25.0 °C 21.0 °C 1014.4 hPa NW 4 km/h 4 km/h 77% 0.00 mm 0.00 W/m2
23:19 25.0 °C 21.0 °C 1014.4 hPa NW 3 km/h 4 km/h 77% 0.00 mm 0.00 W/m2
23:24 25.0 °C 21.0 °C 1014.4 hPa WNW 4 km/h 4 km/h 77% 0.00 mm 0.00 W/m2
23:29 25.0 °C 21.0 °C 1014.4 hPa WNW 1 km/h 4 km/h 78% 0.00 mm 0.00 W/m2
23:34 25.0 °C 21.0 °C 1014.4 hPa NW 5 km/h 8 km/h 78% 0.00 mm 0.00 W/m2
23:39 25.0 °C 21.0 °C 1014.4 hPa NW 4 km/h 8 km/h 78% 0.00 mm 0.00 W/m2
23:44 25.0 °C 21.0 °C 1014.4 hPa NW 5 km/h 8 km/h 78% 0.00 mm 0.00 W/m2
23:49 25.0 °C 21.0 °C 1014.4 hPa NW 5 km/h 8 km/h 78% 0.00 mm 0.00 W/m2
23:54 25.0 °C 21.0 °C 1014.3 hPa West 1 km/h 4 km/h 79% 0.00 mm 0.00 W/m2
23:59 25.0 °C 21.0 °C 1014.0 hPa NW 5 km/h 8 km/h 79% 0.00 mm 0.00 W/m2
PIMOHWEATHER Philippines
Compliments of Weather Underground - 2 mb